createdAt,value
2022-07-31T00:01:16.908Z,99127.03
2022-07-31T00:03:45.162Z,99141.69
2022-07-31T00:06:13.328Z,99140.84
2022-07-31T00:08:41.335Z,99145.34
2022-07-31T00:11:15.521Z,99159.13
2022-07-31T00:13:56.510Z,99157.53
2022-07-31T00:16:31.772Z,99145.84
2022-07-31T00:19:06.091Z,99148.81
2022-07-31T00:21:33.195Z,99150.34
2022-07-31T00:24:04.627Z,99150.16
2022-07-31T00:26:32.108Z,99154.97
2022-07-31T00:29:00.345Z,99158.94
2022-07-31T00:31:27.405Z,99156.50
2022-07-31T00:34:00.222Z,99161.22
2022-07-31T00:36:51.136Z,99159.47
2022-07-31T00:39:18.031Z,99157.47
2022-07-31T00:41:47.032Z,99162.94
2022-07-31T00:44:15.193Z,99153.13
2022-07-31T00:46:42.656Z,99163.03
2022-07-31T00:49:12.609Z,99168.38
2022-07-31T00:51:42.761Z,99151.50
2022-07-31T00:54:23.294Z,99157.63
2022-07-31T00:56:51.768Z,99167.13
2022-07-31T00:59:24.812Z,99178.72
2022-07-31T01:01:53.134Z,99173.41
2022-07-31T01:04:22.231Z,99180.66
2022-07-31T01:06:51.719Z,99181.63
2022-07-31T01:09:18.926Z,99185.03
2022-07-31T01:11:50.045Z,99191.53
2022-07-31T01:14:24.763Z,99181.31
2022-07-31T01:17:00.585Z,99171.38
2022-07-31T01:19:39.638Z,99175.03
2022-07-31T01:22:46.260Z,99188.16
2022-07-31T01:25:47.654Z,99182.06
2022-07-31T01:29:10.294Z,99183.88
2022-07-31T01:31:48.319Z,99191.03
2022-07-31T01:34:47.138Z,99193.69
2022-07-31T01:37:34.753Z,99196.16
2022-07-31T01:40:17.223Z,99190.25
2022-07-31T01:42:51.233Z,99200.00
2022-07-31T01:45:22.769Z,99201.91
2022-07-31T01:47:54.184Z,99204.22
2022-07-31T01:50:42.598Z,99209.75
2022-07-31T01:53:19.057Z,99205.19
2022-07-31T01:56:01.932Z,99195.56
2022-07-31T01:58:43.204Z,99210.72
2022-07-31T02:01:13.863Z,99199.28
2022-07-31T02:03:43.829Z,99208.91
2022-07-31T02:06:15.539Z,99208.69
2022-07-31T02:08:46.507Z,99204.53
2022-07-31T02:11:18.927Z,99203.91
2022-07-31T02:13:48.942Z,99193.13
2022-07-31T02:16:26.478Z,99181.59
2022-07-31T02:18:55.818Z,99193.31
2022-07-31T02:21:29.286Z,99196.09
2022-07-31T02:24:10.680Z,99203.13
2022-07-31T02:26:40.808Z,99192.47
2022-07-31T02:29:20.120Z,99205.91
2022-07-31T02:32:01.990Z,99193.13
2022-07-31T02:34:40.074Z,99196.53
2022-07-31T02:37:15.592Z,99194.19
2022-07-31T02:39:49.554Z,99187.06
2022-07-31T02:42:21.800Z,99198.03
2022-07-31T02:44:52.933Z,99183.22
2022-07-31T02:47:20.770Z,99187.91
2022-07-31T02:49:50.041Z,99183.50
2022-07-31T02:52:23.165Z,99189.94
2022-07-31T02:54:51.182Z,99196.09
2022-07-31T02:57:25.401Z,99186.28
2022-07-31T02:59:54.454Z,99200.59
2022-07-31T03:02:22.725Z,99200.38
2022-07-31T03:05:02.724Z,99195.91
2022-07-31T03:07:30.135Z,99201.31
2022-07-31T03:09:58.133Z,99196.97
2022-07-31T03:12:27.405Z,99195.25
2022-07-31T03:14:58.288Z,99186.28
2022-07-31T03:17:38.425Z,99194.41
2022-07-31T03:20:11.157Z,99200.78
2022-07-31T03:22:40.191Z,99198.34
2022-07-31T03:25:21.293Z,99207.81
2022-07-31T03:28:00.588Z,99206.97
2022-07-31T03:30:29.854Z,99211.25
2022-07-31T03:32:57.661Z,99216.78
2022-07-31T03:35:27.873Z,99215.09
2022-07-31T03:37:54.970Z,99207.81
2022-07-31T03:40:26.286Z,99212.31
2022-07-31T03:42:56.999Z,99220.81
2022-07-31T03:45:27.256Z,99226.16
2022-07-31T03:47:57.316Z,99221.47
2022-07-31T03:50:25.467Z,99236.41
2022-07-31T03:52:55.645Z,99236.81
2022-07-31T03:55:28.802Z,99234.56
2022-07-31T03:57:58.835Z,99238.69
2022-07-31T04:00:28.234Z,99234.63
2022-07-31T04:02:58.724Z,99234.94
2022-07-31T04:05:40.451Z,99237.69
2022-07-31T04:08:10.927Z,99245.06
2022-07-31T04:10:38.606Z,99247.41
2022-07-31T04:13:43.619Z,99236.31
2022-07-31T04:16:16.824Z,99241.16
2022-07-31T04:18:54.805Z,99256.94
2022-07-31T04:21:26.265Z,99257.16
2022-07-31T04:23:54.285Z,99240.44
2022-07-31T04:26:26.221Z,99264.94
2022-07-31T04:28:53.670Z,99245.44
2022-07-31T04:31:20.636Z,99260.38
2022-07-31T04:33:54.663Z,99267.22
2022-07-31T04:36:30.188Z,99249.31
2022-07-31T04:39:01.222Z,99252.75
2022-07-31T04:41:28.897Z,99265.81
2022-07-31T04:44:00.416Z,99260.50
2022-07-31T04:46:30.412Z,99266.06
2022-07-31T04:48:58.505Z,99264.31
2022-07-31T04:51:29.677Z,99267.75
2022-07-31T04:53:56.770Z,99257.63
2022-07-31T04:56:33.778Z,99262.44
2022-07-31T04:59:07.012Z,99278.75
2022-07-31T05:01:55.685Z,99281.22
2022-07-31T05:04:32.440Z,99267.69
2022-07-31T05:06:59.534Z,99270.66
2022-07-31T05:09:36.336Z,99275.03
2022-07-31T05:12:05.492Z,99271.22
2022-07-31T05:14:36.063Z,99274.31
2022-07-31T05:17:12.155Z,99278.25
2022-07-31T05:19:45.084Z,99277.94
2022-07-31T05:22:29.297Z,99280.41
2022-07-31T05:25:05.771Z,99290.28
2022-07-31T05:27:50.068Z,99281.69
2022-07-31T05:30:29.798Z,99280.53
2022-07-31T05:33:05.713Z,99280.34
2022-07-31T05:35:34.866Z,99270.59
2022-07-31T05:38:13.132Z,99284.91
2022-07-31T05:40:40.225Z,99292.69
2022-07-31T05:43:35.527Z,99282.88
2022-07-31T05:46:14.876Z,99295.25
2022-07-31T05:49:03.878Z,99291.41
2022-07-31T05:51:34.270Z,99287.16
2022-07-31T05:54:01.230Z,99286.41
2022-07-31T05:56:35.420Z,99298.03
2022-07-31T05:59:02.422Z,99296.59
2022-07-31T06:01:32.792Z,99295.25
2022-07-31T06:03:59.965Z,99307.06
2022-07-31T06:06:33.307Z,99303.69
2022-07-31T06:09:04.416Z,99312.41
2022-07-31T06:11:42.765Z,99309.75
2022-07-31T06:14:11.911Z,99310.41
2022-07-31T06:16:40.076Z,99305.91
2022-07-31T06:19:08.114Z,99313.19
2022-07-31T06:21:35.183Z,99314.16
2022-07-31T06:24:03.362Z,99315.75
2022-07-31T06:26:38.456Z,99330.69
2022-07-31T06:29:12.510Z,99316.81
2022-07-31T06:31:39.455Z,99320.88
2022-07-31T06:34:06.490Z,99324.38
2022-07-31T06:36:36.524Z,99323.41
2022-07-31T06:39:05.799Z,99321.72
2022-07-31T06:41:47.662Z,99311.06
2022-07-31T06:44:18.688Z,99323.00
2022-07-31T06:46:52.724Z,99324.38
2022-07-31T06:49:19.869Z,99315.66
2022-07-31T06:51:47.955Z,99321.50
2022-07-31T06:54:15.216Z,99323.41
2022-07-31T06:56:43.354Z,99316.44
2022-07-31T06:59:10.608Z,99328.81
2022-07-31T07:01:39.167Z,99322.25
2022-07-31T07:04:06.279Z,99318.41
2022-07-31T07:06:33.347Z,99332.22
2022-07-31T07:09:00.386Z,99312.81
2022-07-31T07:11:27.568Z,99323.91
2022-07-31T07:13:54.564Z,99318.38
2022-07-31T07:16:28.622Z,99318.38
2022-07-31T07:19:03.192Z,99322.00
2022-07-31T07:21:31.258Z,99331.38
2022-07-31T07:23:58.510Z,99326.06
2022-07-31T07:26:28.494Z,99326.91
2022-07-31T07:28:58.159Z,99323.38
2022-07-31T07:31:56.080Z,99324.16
2022-07-31T07:34:36.134Z,99327.75
2022-07-31T07:37:03.177Z,99328.91
2022-07-31T07:39:33.657Z,99318.03
2022-07-31T07:42:03.035Z,99321.75
2022-07-31T07:44:30.274Z,99329.69
2022-07-31T07:46:58.350Z,99330.22
2022-07-31T07:49:36.242Z,99322.41
2022-07-31T07:55:54.424Z,99328.84
2022-07-31T07:58:27.528Z,99322.00
2022-07-31T08:01:07.879Z,99316.88
2022-07-31T08:03:49.290Z,99312.72
2022-07-31T08:06:26.618Z,99316.44
2022-07-31T08:08:54.986Z,99313.66
2022-07-31T08:11:23.236Z,99311.09
2022-07-31T08:13:53.430Z,99316.22
2022-07-31T08:16:20.924Z,99313.34
2022-07-31T08:18:51.732Z,99311.41
2022-07-31T08:21:31.143Z,99306.03
2022-07-31T08:23:58.229Z,99292.78
2022-07-31T08:26:28.112Z,99313.59
2022-07-31T08:28:57.830Z,99310.91
2022-07-31T08:31:26.085Z,99312.47
2022-07-31T08:34:00.180Z,99316.75
2022-07-31T08:36:37.814Z,99320.78
2022-07-31T08:39:17.730Z,99312.44
2022-07-31T08:42:05.373Z,99304.59
2022-07-31T08:44:37.223Z,99310.44
2022-07-31T08:47:15.482Z,99314.56
2022-07-31T08:50:13.252Z,99310.53
2022-07-31T08:52:42.141Z,99312.00
2022-07-31T08:55:24.798Z,99313.16
2022-07-31T08:58:03.602Z,99321.69
2022-07-31T09:00:33.630Z,99309.59
2022-07-31T09:03:03.141Z,99301.47
2022-07-31T09:05:42.073Z,99302.56
2022-07-31T09:08:15.891Z,99309.69
2022-07-31T09:10:47.714Z,99300.53
2022-07-31T09:13:25.556Z,99298.97
2022-07-31T09:15:58.193Z,99300.91
2022-07-31T09:18:30.347Z,99301.63
2022-07-31T09:21:10.655Z,99289.84
2022-07-31T09:24:01.372Z,99302.50
2022-07-31T09:27:14.796Z,99299.44
2022-07-31T09:33:33.500Z,99305.00
2022-07-31T09:36:01.227Z,99305.00
2022-07-31T09:38:59.919Z,99303.47
2022-07-31T09:42:02.107Z,99305.81
2022-07-31T09:44:47.871Z,99305.34
2022-07-31T09:47:56.187Z,99316.78
2022-07-31T09:51:00.491Z,99305.97
2022-07-31T09:53:46.327Z,99322.16
2022-07-31T09:59:54.329Z,99303.69
2022-07-31T10:03:16.239Z,99321.56
2022-07-31T10:06:00.423Z,99324.63
2022-07-31T10:08:54.160Z,99330.09
2022-07-31T10:11:25.058Z,99316.59
2022-07-31T10:17:46.508Z,99323.50
2022-07-31T10:20:17.828Z,99315.25
2022-07-31T10:26:44.558Z,99316.75
2022-07-31T10:29:36.449Z,99319.56
2022-07-31T10:32:20.142Z,99324.53
2022-07-31T10:35:00.988Z,99315.41
2022-07-31T10:38:10.851Z,99328.44
2022-07-31T10:41:03.870Z,99333.44
2022-07-31T10:47:21.524Z,99322.34
2022-07-31T10:50:20.711Z,99318.53
2022-07-31T10:52:56.173Z,99326.31
2022-07-31T10:55:32.769Z,99319.69
2022-07-31T10:58:14.271Z,99310.00
2022-07-31T11:00:43.684Z,99317.19
2022-07-31T11:03:24.315Z,99315.41
2022-07-31T11:06:00.920Z,99318.50
2022-07-31T11:08:40.550Z,99316.75
2022-07-31T11:11:08.691Z,99310.88
2022-07-31T11:13:49.791Z,99314.41
2022-07-31T11:16:24.926Z,99292.66
2022-07-31T11:19:05.367Z,99313.16
2022-07-31T11:22:31.050Z,99316.41
2022-07-31T11:24:58.869Z,99309.66
2022-07-31T11:27:31.456Z,99311.41
2022-07-31T11:30:13.113Z,99314.53
2022-07-31T11:32:53.277Z,99321.47
2022-07-31T11:35:30.795Z,99313.72
2022-07-31T11:38:00.066Z,99311.16
2022-07-31T11:40:28.326Z,99314.81
2022-07-31T11:43:24.334Z,99309.56
2022-07-31T11:45:50.193Z,99315.81
2022-07-31T11:48:39.064Z,99316.81
2022-07-31T11:51:09.241Z,99313.72
2022-07-31T11:53:42.830Z,99306.22
2022-07-31T11:56:10.869Z,99309.16
2022-07-31T11:58:39.061Z,99310.84
2022-07-31T12:01:06.134Z,99304.44
2022-07-31T12:03:38.578Z,99302.97
2022-07-31T12:06:07.566Z,99299.34
2022-07-31T12:08:36.337Z,99289.13
2022-07-31T12:11:05.980Z,99287.28
2022-07-31T12:13:36.898Z,99291.50
2022-07-31T12:16:09.668Z,99301.31
2022-07-31T12:18:59.624Z,99301.44
2022-07-31T12:22:13.155Z,99301.03
2022-07-31T12:24:40.797Z,99292.66
2022-07-31T12:27:09.542Z,99310.59
2022-07-31T12:29:40.686Z,99297.88
2022-07-31T12:32:08.485Z,99296.13
2022-07-31T12:34:42.660Z,99313.06
2022-07-31T12:37:19.395Z,99300.78
2022-07-31T12:39:59.533Z,99301.13
2022-07-31T12:42:41.306Z,99296.75
2022-07-31T12:45:19.832Z,99291.00
2022-07-31T12:47:53.794Z,99284.03
2022-07-31T12:50:23.483Z,99296.97
2022-07-31T12:52:51.997Z,99294.34
2022-07-31T12:55:19.901Z,99295.81
2022-07-31T12:57:50.859Z,99292.06
2022-07-31T13:00:24.284Z,99289.38
2022-07-31T13:02:57.614Z,99280.28
2022-07-31T13:05:26.288Z,99284.34
2022-07-31T13:07:54.558Z,99285.31
2022-07-31T13:10:25.064Z,99280.94
2022-07-31T13:13:00.863Z,99287.63
2022-07-31T13:15:31.984Z,99271.00
2022-07-31T13:18:05.385Z,99276.59
2022-07-31T13:20:33.571Z,99281.00
2022-07-31T13:23:02.471Z,99290.22
2022-07-31T13:25:33.394Z,99277.47
2022-07-31T13:28:04.828Z,99271.22
2022-07-31T13:30:33.036Z,99285.28
2022-07-31T13:33:00.069Z,99285.16
2022-07-31T13:35:29.895Z,99275.16
2022-07-31T13:38:03.128Z,99270.53
2022-07-31T13:40:48.588Z,99282.91
2022-07-31T13:43:25.448Z,99275.78
2022-07-31T13:45:54.531Z,99279.53
2022-07-31T13:48:21.589Z,99276.63
2022-07-31T13:50:49.614Z,99276.47
2022-07-31T13:53:22.839Z,99279.13
2022-07-31T13:55:50.464Z,99279.66
2022-07-31T13:58:18.049Z,99278.47
2022-07-31T14:00:45.077Z,99278.16
2022-07-31T14:03:15.209Z,99268.34
2022-07-31T14:05:48.007Z,99262.09
2022-07-31T14:08:32.568Z,99273.75
2022-07-31T14:11:04.835Z,99258.47
2022-07-31T14:13:47.156Z,99275.75
2022-07-31T14:16:17.249Z,99266.38
2022-07-31T14:18:55.736Z,99261.78
2022-07-31T14:21:35.479Z,99259.03
2022-07-31T14:24:07.624Z,99257.69
2022-07-31T14:26:48.783Z,99256.81
2022-07-31T14:29:19.144Z,99254.63
2022-07-31T14:32:00.436Z,99259.47
2022-07-31T14:34:37.525Z,99266.91
2022-07-31T14:37:05.271Z,99264.94
2022-07-31T14:39:34.661Z,99251.97
2022-07-31T14:42:03.062Z,99265.16
2022-07-31T14:44:48.587Z,99259.34
2022-07-31T14:47:40.077Z,99265.25
2022-07-31T14:50:19.040Z,99259.34
2022-07-31T14:53:01.862Z,99262.72
2022-07-31T14:55:35.303Z,99273.41
2022-07-31T14:58:02.452Z,99265.19
2022-07-31T15:00:32.619Z,99273.63
2022-07-31T15:03:05.589Z,99268.00
2022-07-31T15:06:40.036Z,99278.81
2022-07-31T15:08:29.370Z,99271.03
2022-07-31T15:10:56.421Z,99268.94
2022-07-31T15:13:23.602Z,99270.25
2022-07-31T15:16:01.028Z,99268.88
2022-07-31T15:19:00.963Z,99274.53
2022-07-31T15:21:28.041Z,99267.56
2022-07-31T15:23:57.189Z,99279.13
2022-07-31T15:26:32.391Z,99260.28
2022-07-31T15:29:00.435Z,99262.88
2022-07-31T15:31:27.682Z,99262.00
2022-07-31T15:33:54.942Z,99265.59
2022-07-31T15:36:29.526Z,99253.47
2022-07-31T15:39:04.153Z,99263.66
2022-07-31T15:41:53.299Z,99270.69
2022-07-31T15:44:23.371Z,99258.22
2022-07-31T15:47:00.311Z,99254.78
2022-07-31T15:49:44.127Z,99257.09
2022-07-31T15:52:18.591Z,99257.81
2022-07-31T15:54:51.791Z,99251.38
2022-07-31T15:57:29.464Z,99257.09
2022-07-31T16:00:00.830Z,99249.72
2022-07-31T16:02:31.313Z,99248.59
2022-07-31T16:05:21.704Z,99251.47
2022-07-31T16:08:28.538Z,99255.41
2022-07-31T16:10:56.573Z,99254.28
2022-07-31T16:13:42.285Z,99252.59
2022-07-31T16:16:22.409Z,99243.50
2022-07-31T16:18:50.427Z,99239.19
2022-07-31T16:21:21.715Z,99242.44
2022-07-31T16:23:58.915Z,99250.78
2022-07-31T16:26:27.060Z,99243.16
2022-07-31T16:28:56.318Z,99242.53
2022-07-31T16:31:34.507Z,99248.31
2022-07-31T16:34:15.753Z,99249.59
2022-07-31T16:36:57.056Z,99250.56
2022-07-31T16:39:24.220Z,99247.19
2022-07-31T16:41:56.684Z,99252.69
2022-07-31T16:44:25.960Z,99240.94
2022-07-31T16:46:55.026Z,99247.84
2022-07-31T16:49:35.655Z,99237.31
2022-07-31T16:52:06.834Z,99243.22
2022-07-31T16:54:34.348Z,99248.28
2022-07-31T16:57:01.433Z,99243.22
2022-07-31T16:59:57.342Z,99242.28
2022-07-31T17:02:28.087Z,99240.22
2022-07-31T17:05:25.961Z,99240.25
2022-07-31T17:07:54.961Z,99242.66
2022-07-31T17:10:33.551Z,99241.94
2022-07-31T17:13:36.555Z,99236.38
2022-07-31T17:16:09.745Z,99241.78
2022-07-31T17:18:40.769Z,99239.59
2022-07-31T17:21:38.524Z,99244.94
2022-07-31T17:24:16.264Z,99243.59
2022-07-31T17:26:52.437Z,99244.94
2022-07-31T17:29:20.390Z,99246.63
2022-07-31T17:32:01.088Z,99245.06
2022-07-31T17:34:35.747Z,99254.38
2022-07-31T17:37:20.787Z,99256.03
2022-07-31T17:39:57.666Z,99252.31
2022-07-31T17:42:26.645Z,99254.38
2022-07-31T17:45:02.835Z,99256.38
2022-07-31T17:47:43.430Z,99264.66
2022-07-31T17:50:12.881Z,99249.41
2022-07-31T17:53:02.802Z,99254.47
2022-07-31T17:55:33.186Z,99256.88
2022-07-31T17:58:08.560Z,99256.66
2022-07-31T18:00:41.629Z,99253.25
2022-07-31T18:03:17.736Z,99261.88
2022-07-31T18:05:57.998Z,99253.16
2022-07-31T18:08:34.286Z,99264.63
2022-07-31T18:11:08.746Z,99265.19
2022-07-31T18:13:48.148Z,99265.50
2022-07-31T18:16:25.569Z,99260.31
2022-07-31T18:18:54.501Z,99270.72
2022-07-31T18:21:22.946Z,99269.72
2022-07-31T18:24:06.381Z,99273.28
2022-07-31T18:26:35.545Z,99273.38
2022-07-31T18:29:05.368Z,99274.41
2022-07-31T18:31:35.907Z,99279.22
2022-07-31T18:34:08.401Z,99277.44
2022-07-31T18:36:37.940Z,99272.88
2022-07-31T18:39:05.996Z,99275.66
2022-07-31T18:41:40.228Z,99275.72
2022-07-31T18:44:32.976Z,99282.94
2022-07-31T18:47:30.563Z,99279.53
2022-07-31T18:50:59.942Z,99284.47
2022-07-31T18:52:50.295Z,99284.75
2022-07-31T18:55:17.783Z,99286.13
2022-07-31T18:57:45.003Z,99286.53
2022-07-31T19:00:15.414Z,99294.41
2022-07-31T19:02:47.607Z,99289.47
2022-07-31T19:05:21.681Z,99296.53
2022-07-31T19:07:49.564Z,99301.56
2022-07-31T19:10:29.601Z,99299.22
2022-07-31T19:13:01.120Z,99305.50
2022-07-31T19:15:38.168Z,99308.06
2022-07-31T19:18:25.084Z,99302.88
2022-07-31T19:21:17.740Z,99303.72
2022-07-31T19:23:49.041Z,99313.63
2022-07-31T19:26:30.117Z,99310.72
2022-07-31T19:29:07.450Z,99319.13
2022-07-31T19:31:36.550Z,99319.00
2022-07-31T19:34:05.767Z,99320.19
2022-07-31T19:36:40.393Z,99320.16
2022-07-31T19:39:20.903Z,99318.91
2022-07-31T19:42:11.079Z,99319.41
2022-07-31T19:44:37.054Z,99322.06
2022-07-31T19:47:04.445Z,99318.22
2022-07-31T19:49:54.783Z,99319.41
2022-07-31T19:52:22.539Z,99314.03
2022-07-31T19:54:49.884Z,99320.59
2022-07-31T19:57:19.156Z,99322.59
2022-07-31T19:59:48.555Z,99319.06
2022-07-31T20:02:24.586Z,99312.78
2022-07-31T20:04:58.627Z,99321.50
2022-07-31T20:07:43.004Z,99322.47
2022-07-31T20:10:10.624Z,99321.72
2022-07-31T20:12:41.174Z,99319.31
2022-07-31T20:15:11.135Z,99323.50
2022-07-31T20:17:39.251Z,99308.56
2022-07-31T20:20:15.276Z,99315.00
2022-07-31T20:23:05.882Z,99319.06
2022-07-31T20:25:40.531Z,99315.13
2022-07-31T20:28:09.766Z,99316.34
2022-07-31T20:30:49.355Z,99320.84
2022-07-31T20:33:21.899Z,99317.22
2022-07-31T20:35:53.152Z,99316.19
2022-07-31T20:38:25.419Z,99318.75
2022-07-31T20:41:18.441Z,99319.41
2022-07-31T20:44:23.284Z,99319.94
2022-07-31T20:46:57.734Z,99323.59
2022-07-31T20:49:34.812Z,99322.16
2022-07-31T20:52:05.704Z,99324.53
2022-07-31T20:54:38.983Z,99324.53
2022-07-31T20:57:07.017Z,99327.09
2022-07-31T20:59:45.320Z,99336.06
2022-07-31T21:02:15.487Z,99327.53
2022-07-31T21:04:43.532Z,99332.22
2022-07-31T21:07:14.710Z,99332.69
2022-07-31T21:09:49.022Z,99324.13
2022-07-31T21:12:16.067Z,99331.50
2022-07-31T21:14:44.050Z,99322.53
2022-07-31T21:17:12.086Z,99316.44
2022-07-31T21:19:40.199Z,99325.09
2022-07-31T21:22:10.599Z,99324.47
2022-07-31T21:24:37.814Z,99328.63
2022-07-31T21:27:07.224Z,99326.41
2022-07-31T21:29:34.683Z,99332.63
2022-07-31T21:32:02.548Z,99331.31
2022-07-31T21:34:30.133Z,99329.75
2022-07-31T21:37:07.685Z,99333.34
2022-07-31T21:39:36.087Z,99332.53
2022-07-31T21:42:07.017Z,99347.19
2022-07-31T21:44:35.641Z,99339.44
2022-07-31T21:47:06.785Z,99343.16
2022-07-31T21:49:51.527Z,99344.19
2022-07-31T21:52:46.104Z,99354.22
2022-07-31T21:55:19.344Z,99344.53
2022-07-31T21:58:00.290Z,99350.19
2022-07-31T22:00:30.539Z,99346.09
2022-07-31T22:03:54.965Z,99354.94
2022-07-31T22:06:41.742Z,99351.22
2022-07-31T22:09:58.112Z,99353.91
2022-07-31T22:12:25.365Z,99353.25
2022-07-31T22:14:54.998Z,99351.53
2022-07-31T22:17:31.949Z,99348.19
2022-07-31T22:20:09.769Z,99345.53
2022-07-31T22:22:37.574Z,99344.59
2022-07-31T22:25:06.658Z,99345.16
2022-07-31T22:27:57.608Z,99346.50
2022-07-31T22:30:41.270Z,99350.75
2022-07-31T22:33:10.664Z,99341.47
2022-07-31T22:35:40.977Z,99348.47
2022-07-31T22:38:11.347Z,99351.13
2022-07-31T22:40:44.119Z,99347.56
2022-07-31T22:44:10.588Z,99347.75
2022-07-31T22:46:29.590Z,99349.06
2022-07-31T22:49:00.425Z,99350.09
2022-07-31T22:51:38.402Z,99349.81
2022-07-31T22:54:50.742Z,99342.94
2022-07-31T22:57:18.361Z,99342.63
2022-07-31T22:59:46.986Z,99340.47
2022-07-31T23:02:18.330Z,99341.38
2022-07-31T23:06:03.558Z,99336.66
2022-07-31T23:08:37.958Z,99334.22
2022-07-31T23:11:33.807Z,99335.66
2022-07-31T23:14:05.239Z,99342.63
2022-07-31T23:16:34.396Z,99340.81
2022-07-31T23:19:17.521Z,99338.94
2022-07-31T23:22:30.747Z,99330.28
2022-07-31T23:25:02.976Z,99332.13
2022-07-31T23:27:38.233Z,99333.63
2022-07-31T23:30:09.910Z,99334.34
2022-07-31T23:32:39.128Z,99330.84
2022-07-31T23:35:12.228Z,99326.56
2022-07-31T23:38:14.350Z,99322.22
2022-07-31T23:40:43.471Z,99331.47
2022-07-31T23:43:20.923Z,99334.13
2022-07-31T23:45:56.406Z,99330.84
2022-07-31T23:48:30.041Z,99329.38
2022-07-31T23:51:08.234Z,99327.00
2022-07-31T23:53:42.334Z,99330.16
2022-07-31T23:56:19.175Z,99329.03
2022-07-31T23:58:52.693Z,99325.25
